Langdon, ND

5:17 AM CST on January 24, 2017 (GMT -0600)
Langdon | | Change Station

Elev 1608 ft 48.75 °N, 98.39 °W | Updated 9 days ago

Overcast
Overcast
-8 °F
Feels Like -27 °F
N
12
Wind Variable Wind from SW

Today
High -- | Low -- °F
--% Chance of Precip.
Yesterday
High -- | Low -- °F
Precip. -- in
Pressure 30.36 in
Visibility 10.0 miles
Clouds Clear
Windchill -27 °F
Dew Point -13 °F
Humidity 77%
Rainfall 0.00 in
Snow Depth Not available.
8:12 AM 5:19 PM
Waning Crescent, 12% visible
METAR KD55 141515Z AUTO 22010KT 10SM CLR M22/M25 A3036 RMK AO2
Pressure 30.36 in
Visibility 10.0 miles
Clouds Clear
Windchill -27 °F
Dew Point -13 °F
Humidity 77%
Rainfall 0.00 in
Snow Depth Not available.
8:12 AM 5:19 PM
Waning Crescent, 12% visible
METAR KD55 141515Z AUTO 22010KT 10SM CLR M22/M25 A3036 RMK AO2

Get Your Daily Forecast Email!

Thanks for signing up!

Be on the lookout for a verification email in your inbox.

You'll start receiving the daily forecast at 8 AM.

×

10-Day Weather Forecast

Almanac

Astronomy

Jan. 24, 2017 Rise Set
Actual Time
Civil Twilight
Nautical Twilight
Astronomical Twilight
Moon
Length of Visible Light
Length of Day
Tomorrow will be .
, % of the Moon is Illuminated

Today's Extremes

State Highs State Lows

Community

WunderPhotos

Upload Photos

1,962,540 photos uploaded!

WunderBlog® & News

Nearby

Air Quality

  Air Quality AQ Index Pollutant
Not available.

Snow Depth

Station Depth Elevation

Earthquake Activity

City Distance Mag. Time & Date
Minimum magnitude displayed is 2.5.

Coastal Water Temperatures

Place Temperature

Stations

Nearby Weather Stations

Station Location Temp. Windchill Dew Point Humidity Wind Precip. Elev Updated Type
                   

Watches & Warnings

There are currently no watches in effect.